CheckWX is a tool to help pilots better visualize weather data.  It is not intended as a substitute for an official pre-flight weather briefing.

22:51:10 UTC

K7BM METAR
Cottonwood Pass Airport
Cottonwood Pass, Colorado, USA
Current

27 mins ago

K7BM 262224Z AUTO 22010G23KT 190V250 10SM CLR 10/M19 A3025 RMK AO2
Observed
Mar-26 @ 22:24 UTC
Wind
  • 220° at 10 KTS
  • Gusting to 23 KTS
Visibility
10 SM
Flight Rules
VFR
Cloud Levels
  • Clear skies
Temperature
10°C / 50°F
Dewpoint
-19°C / -2°F
Humidity
11%
Altimeter
30.25" Hg
Pressure
1024.42 hPa
Previous

45 mins ago

K7BM 262206Z AUTO 23015G19KT 210V270 10SM CLR 11/M20 A3026 RMK AO2
Observed
Mar-26 @ 22:06 UTC
Wind
  • 230° at 15 KTS
  • Gusting to 19 KTS
Visibility
10 SM
Flight Rules
VFR
Cloud Levels
  • Clear skies
Temperature
11°C / 52°F
Dewpoint
-20°C / -4°F
Humidity
10%
Altimeter
30.26" Hg
Pressure
1024.72 hPa
Previous

1 hour ago

K7BM 262148Z AUTO 23014G25KT 180V260 10SM CLR 11/M20 A3026 RMK AO2
Observed
Mar-26 @ 21:48 UTC
Wind
  • 230° at 14 KTS
  • Gusting to 25 KTS
Visibility
10 SM
Flight Rules
VFR
Cloud Levels
  • Clear skies
Temperature
11°C / 52°F
Dewpoint
-20°C / -4°F
Humidity
10%
Altimeter
30.26" Hg
Pressure
1024.72 hPa